Baker City, OR

11:41 AM PDT on September 22, 2014 (GMT -0700)
Baker City Municipal | Change Station
CLOSE
Current Station
Airport
Location: Baker,
Elevation: 3373 ft
Nearby Weather Stations

Elev 3373 ft 44.84 °N, 117.81 °W | Updated 48 minutes ago

Overcast
Overcast
65 °F
Feels Like 65 °F
N
0
Wind Variable Wind from North

Today
High -- | Low -- °F
--% Chance of Precip.
Yesterday
High -- | Low -- °F
Precip. -- in
6:38 AM 6:48 PM
Waning Crescent, 2% visible
Pressure 30.01 in
Visibility 10.0 miles
Clouds Overcast 9500 ft
Dew Point 54 °F
Humidity 68%
Rainfall 0.00 in
Snow Depth 0 in , 0 in , 0 in
UV 2 out of 12
Pollen 5.20 out of 12
Air Quality Not available.
Flu Activity Not available.
METAR KBKE 221753Z AUTO 00000KT 10SM -RA OVC095 18/12 A3008 RMK AO2 RAB28 SLP163 P0000 60000 T01830122 10189 20144 50005 TSNO

More Conditions Fewer Conditions

Pressure 30.01 in
Visibility 10.0 miles
Clouds Overcast 9500 ft
Dew Point 54 °F
Humidity 68%
Rainfall 0.00 in
Snow Depth 0 in , 0 in , 0 in
UV 2 out of 12
Pollen 5.20 out of 12
Air Quality Not available.
Flu Activity Not available.
METAR KBKE 221753Z AUTO 00000KT 10SM -RA OVC095 18/12 A3008 RMK AO2 RAB28 SLP163 P0000 60000 T01830122 10189 20144 50005 TSNO

More Conditions Fewer Conditions

10-Day Weather Forecast

Almanac

Astronomy

Sep. 22, 2014 Rise Set
Actual Time 6:38 AM PDT 6:48 PM PDT
Civil Twilight 6:09 AM PDT 7:17 PM PDT
Nautical Twilight 5:34 AM PDT 7:51 PM PDT
Astronomical Twilight 4:59 AM PDT 8:27 PM PDT
Moon 5:08 AM PDT 5:59 PM PDT
Length of Visible Light 13h 08m
Length of Day
12h 10m
Tomorrow will be 3m 6s shorter.
Waning Crescent, 2% of the Moon is Illuminated
Today
Waning Crescent
Sep 24
New
Oct 1
First Quarter
Oct 8
Full
Oct 15
Last Quarter

Today's Extremes

State Highs State Lows

Community

WunderPhotos

Upload Photos

1,755,512 photos uploaded!

WunderBlogs® & News

Nearby

Snow Depth

Station Depth Elevation
Lucky Strike 0 in 5050 ft
Bourne 0 in 5800 ft
Bigelow Camp 0 in 5120 ft
Clear Lake 1 in 3500 ft
Daly Lake 0 in 3600 ft

Earthquake Activity

City Distance Mag. Time & Date
No recent earthquake activity has been reported nearby.
Minimum magnitude displayed is 2.5.

Coastal Water Temperatures

Place Temperature
No Stations Reporting

Nearby Weather Stations